sensor_id;sensor_type;location;lat;lon;timestamp;pressure;altitude;pressure_sealevel;temperature;humidity
42297;BME280;28985;47.456;19.016;2022-12-04T00:01:18;101127.63;;;3.36;99.10
42297;BME280;28985;47.456;19.016;2022-12-04T00:03:45;101127.63;;;3.36;99.10
42297;BME280;28985;47.456;19.016;2022-12-04T00:06:14;101128.81;;;3.31;98.76
42297;BME280;28985;47.456;19.016;2022-12-04T00:08:41;101127.31;;;3.25;99.59
42297;BME280;28985;47.456;19.016;2022-12-04T00:11:09;101117.44;;;3.27;98.32
42297;BME280;28985;47.456;19.016;2022-12-04T00:13:37;101119.22;;;3.27;98.34
42297;BME280;28985;47.456;19.016;2022-12-04T00:16:06;101112.25;;;3.24;98.42
42297;BME280;28985;47.456;19.016;2022-12-04T00:18:34;101120.44;;;3.19;98.96
42297;BME280;28985;47.456;19.016;2022-12-04T00:21:05;101123.34;;;3.15;98.18
42297;BME280;28985;47.456;19.016;2022-12-04T00:23:34;101123.47;;;3.12;98.08
42297;BME280;28985;47.456;19.016;2022-12-04T00:26:06;101117.59;;;3.05;98.70
42297;BME280;28985;47.456;19.016;2022-12-04T00:28:34;101130.28;;;2.98;98.03
42297;BME280;28985;47.456;19.016;2022-12-04T00:31:06;101132.16;;;2.96;97.87
42297;BME280;28985;47.456;19.016;2022-12-04T00:33:33;101138.09;;;2.82;99.34
42297;BME280;28985;47.456;19.016;2022-12-04T00:36:03;101135.56;;;2.79;98.57
42297;BME280;28985;47.456;19.016;2022-12-04T00:38:29;101133.06;;;2.76;98.25
42297;BME280;28985;47.456;19.016;2022-12-04T00:40:56;101133.31;;;2.70;99.04
42297;BME280;28985;47.456;19.016;2022-12-04T00:43:23;101123.81;;;2.64;98.74
42297;BME280;28985;47.456;19.016;2022-12-04T00:45:51;101129.41;;;2.58;98.88
42297;BME280;28985;47.456;19.016;2022-12-04T00:48:18;101133.19;;;2.52;99.27
42297;BME280;28985;47.456;19.016;2022-12-04T00:50:44;101124.41;;;2.50;100.00
42297;BME280;28985;47.456;19.016;2022-12-04T00:53:11;101122.69;;;2.49;100.00
42297;BME280;28985;47.456;19.016;2022-12-04T00:55:40;101125.34;;;2.49;100.00
42297;BME280;28985;47.456;19.016;2022-12-04T00:58:07;101129.00;;;2.46;100.00
42297;BME280;28985;47.456;19.016;2022-12-04T01:00:35;101127.41;;;2.42;100.00
42297;BME280;28985;47.456;19.016;2022-12-04T01:03:02;101124.63;;;2.45;100.00
42297;BME280;28985;47.456;19.016;2022-12-04T01:05:32;101133.59;;;2.42;100.00
42297;BME280;28985;47.456;19.016;2022-12-04T01:08:02;101132.53;;;2.47;100.00
42297;BME280;28985;47.456;19.016;2022-12-04T01:10:29;101134.97;;;2.51;100.00
42297;BME280;28985;47.456;19.016;2022-12-04T01:12:56;101139.38;;;2.52;100.00
42297;BME280;28985;47.456;19.016;2022-12-04T01:15:22;101135.59;;;2.58;100.00
42297;BME280;28985;47.456;19.016;2022-12-04T01:17:49;101132.59;;;2.66;100.00
42297;BME280;28985;47.456;19.016;2022-12-04T01:20:16;101132.34;;;2.72;100.00
42297;BME280;28985;47.456;19.016;2022-12-04T01:22:43;101125.81;;;2.79;100.00
42297;BME280;28985;47.456;19.016;2022-12-04T01:25:09;101122.81;;;2.87;100.00
42297;BME280;28985;47.456;19.016;2022-12-04T01:27:36;101122.44;;;2.95;100.00
42297;BME280;28985;47.456;19.016;2022-12-04T01:30:03;101123.91;;;3.02;100.00
42297;BME280;28985;47.456;19.016;2022-12-04T01:32:29;101124.47;;;3.09;100.00
42297;BME280;28985;47.456;19.016;2022-12-04T01:34:56;101121.63;;;3.14;100.00
42297;BME280;28985;47.456;19.016;2022-12-04T01:37:22;101123.13;;;3.19;100.00
42297;BME280;28985;47.456;19.016;2022-12-04T01:39:49;101123.84;;;3.23;100.00
42297;BME280;28985;47.456;19.016;2022-12-04T01:42:16;101123.84;;;3.23;100.00
42297;BME280;28985;47.456;19.016;2022-12-04T01:47:46;101130.09;;;3.22;100.00
42297;BME280;28985;47.456;19.016;2022-12-04T01:50:12;101131.16;;;3.18;100.00
42297;BME280;28985;47.456;19.016;2022-12-04T01:52:39;101132.88;;;3.19;100.00
42297;BME280;28985;47.456;19.016;2022-12-04T01:55:06;101126.00;;;3.15;100.00
42297;BME280;28985;47.456;19.016;2022-12-04T01:57:33;101123.47;;;3.12;100.00
42297;BME280;28985;47.456;19.016;2022-12-04T02:00:05;101126.41;;;3.05;100.00
42297;BME280;28985;47.456;19.016;2022-12-04T02:02:35;101122.31;;;2.98;100.00
42297;BME280;28985;47.456;19.016;2022-12-04T02:05:05;101110.13;;;2.92;100.00
42297;BME280;28985;47.456;19.016;2022-12-04T02:07:32;101106.84;;;2.87;100.00
42297;BME280;28985;47.456;19.016;2022-12-04T02:09:59;101100.66;;;2.87;100.00
42297;BME280;28985;47.456;19.016;2022-12-04T02:12:58;101104.59;;;2.78;100.00
42297;BME280;28985;47.456;19.016;2022-12-04T02:15:47;101107.59;;;2.70;100.00
42297;BME280;28985;47.456;19.016;2022-12-04T02:21:18;101110.72;;;2.59;100.00
42297;BME280;28985;47.456;19.016;2022-12-04T02:24:10;101116.31;;;2.53;100.00
42297;BME280;28985;47.456;19.016;2022-12-04T02:26:58;101112.00;;;2.50;100.00
42297;BME280;28985;47.456;19.016;2022-12-04T02:29:35;101117.44;;;2.47;100.00
42297;BME280;28985;47.456;19.016;2022-12-04T02:32:17;101116.72;;;2.44;100.00
42297;BME280;28985;47.456;19.016;2022-12-04T02:35:02;101110.59;;;2.41;100.00
42297;BME280;28985;47.456;19.016;2022-12-04T02:37:36;101121.34;;;2.38;100.00
42297;BME280;28985;47.456;19.016;2022-12-04T02:40:07;101121.50;;;2.35;100.00
42297;BME280;28985;47.456;19.016;2022-12-04T02:42:54;101121.72;;;2.31;100.00
42297;BME280;28985;47.456;19.016;2022-12-04T02:45:27;101120.78;;;2.32;100.00
42297;BME280;28985;47.456;19.016;2022-12-04T02:47:59;101121.72;;;2.31;100.00
42297;BME280;28985;47.456;19.016;2022-12-04T02:50:28;101116.56;;;2.26;100.00
42297;BME280;28985;47.456;19.016;2022-12-04T02:53:00;101121.94;;;2.24;100.00
42297;BME280;28985;47.456;19.016;2022-12-04T02:55:41;101115.72;;;2.25;100.00
42297;BME280;28985;47.456;19.016;2022-12-04T02:58:14;101098.13;;;2.23;100.00
42297;BME280;28985;47.456;19.016;2022-12-04T03:00:44;101098.03;;;2.24;100.00
42297;BME280;28985;47.456;19.016;2022-12-04T03:03:17;101100.84;;;2.21;100.00
42297;BME280;28985;47.456;19.016;2022-12-04T03:05:54;101100.16;;;2.16;100.00
42297;BME280;28985;47.456;19.016;2022-12-04T03:08:31;101099.22;;;2.17;100.00
42297;BME280;28985;47.456;19.016;2022-12-04T03:11:00;101103.81;;;2.13;100.00
42297;BME280;28985;47.456;19.016;2022-12-04T03:13:38;101103.06;;;2.10;100.00
42297;BME280;28985;47.456;19.016;2022-12-04T03:16:28;101099.81;;;2.03;100.00
42297;BME280;28985;47.456;19.016;2022-12-04T03:19:08;101098.28;;;1.97;100.00
42297;BME280;28985;47.456;19.016;2022-12-04T03:21:37;101105.38;;;1.97;100.00
42297;BME280;28985;47.456;19.016;2022-12-04T03:24:11;101105.47;;;1.95;100.00
42297;BME280;28985;47.456;19.016;2022-12-04T03:26:47;101101.88;;;1.96;100.00
42297;BME280;28985;47.456;19.016;2022-12-04T03:29:23;101099.22;;;1.96;100.00
42297;BME280;28985;47.456;19.016;2022-12-04T03:32:20;101107.88;;;2.01;100.00
42297;BME280;28985;47.456;19.016;2022-12-04T03:35:07;101102.72;;;1.97;100.00
42297;BME280;28985;47.456;19.016;2022-12-04T03:37:40;101106.31;;;1.96;100.00
42297;BME280;28985;47.456;19.016;2022-12-04T03:40:40;101093.75;;;1.99;100.00
42297;BME280;28985;47.456;19.016;2022-12-04T03:43:16;101096.56;;;1.96;100.00
42297;BME280;28985;47.456;19.016;2022-12-04T03:51:41;101118.91;;;1.91;100.00
42297;BME280;28985;47.456;19.016;2022-12-04T03:54:13;101120.72;;;1.90;100.00
42297;BME280;28985;47.456;19.016;2022-12-04T03:56:54;101112.03;;;1.86;100.00
42297;BME280;28985;47.456;19.016;2022-12-04T03:59:25;101107.50;;;1.88;100.00
42297;BME280;28985;47.456;19.016;2022-12-04T04:01:55;101113.47;;;1.94;100.00
42297;BME280;28985;47.456;19.016;2022-12-04T04:04:29;101114.22;;;1.97;100.00
42297;BME280;28985;47.456;19.016;2022-12-04T04:07:02;101107.19;;;1.96;100.00
42297;BME280;28985;47.456;19.016;2022-12-04T04:09:34;101101.00;;;1.96;100.00
42297;BME280;28985;47.456;19.016;2022-12-04T04:12:06;101100.16;;;1.95;100.00
42297;BME280;28985;47.456;19.016;2022-12-04T04:14:38;101096.69;;;1.93;100.00
42297;BME280;28985;47.456;19.016;2022-12-04T04:17:30;101107.34;;;1.92;100.00
42297;BME280;28985;47.456;19.016;2022-12-04T04:20:19;101114.47;;;1.91;100.00
42297;BME280;28985;47.456;19.016;2022-12-04T04:23:06;101106.50;;;1.91;100.00
42297;BME280;28985;47.456;19.016;2022-12-04T04:25:55;101110.00;;;1.92;100.00
42297;BME280;28985;47.456;19.016;2022-12-04T04:28:33;101116.31;;;1.89;100.00
42297;BME280;28985;47.456;19.016;2022-12-04T04:39:57;101124.72;;;1.78;100.00
42297;BME280;28985;47.456;19.016;2022-12-04T04:45:18;101110.59;;;1.78;100.00
42297;BME280;28985;47.456;19.016;2022-12-04T04:47:53;101123.75;;;1.81;100.00
42297;BME280;28985;47.456;19.016;2022-12-04T04:50:22;101121.81;;;1.84;100.00
42297;BME280;28985;47.456;19.016;2022-12-04T04:52:52;101116.56;;;1.83;100.00
42297;BME280;28985;47.456;19.016;2022-12-04T04:55:21;101117.56;;;1.80;100.00
42297;BME280;28985;47.456;19.016;2022-12-04T04:57:48;101118.63;;;1.76;100.00
42297;BME280;28985;47.456;19.016;2022-12-04T05:00:20;101124.91;;;1.73;100.00
42297;BME280;28985;47.456;19.016;2022-12-04T05:02:47;101122.25;;;1.73;100.00
42297;BME280;28985;47.456;19.016;2022-12-04T05:05:16;101126.84;;;1.70;100.00
42297;BME280;28985;47.456;19.016;2022-12-04T05:07:42;101118.88;;;1.70;100.00
42297;BME280;28985;47.456;19.016;2022-12-04T05:10:09;101127.63;;;1.72;100.00
42297;BME280;28985;47.456;19.016;2022-12-04T05:12:36;101120.59;;;1.71;100.00
42297;BME280;28985;47.456;19.016;2022-12-04T05:15:03;101116.31;;;1.67;100.00
42297;BME280;28985;47.456;19.016;2022-12-04T05:17:29;101117.41;;;1.63;100.00
42297;BME280;28985;47.456;19.016;2022-12-04T05:19:56;101116.56;;;1.60;100.00
42297;BME280;28985;47.456;19.016;2022-12-04T05:22:34;101116.56;;;1.60;100.00
42297;BME280;28985;47.456;19.016;2022-12-04T05:25:02;101115.63;;;1.61;100.00
42297;BME280;28985;47.456;19.016;2022-12-04T05:27:29;101110.28;;;1.63;100.00
42297;BME280;28985;47.456;19.016;2022-12-04T05:29:57;101111.06;;;1.65;100.00
42297;BME280;28985;47.456;19.016;2022-12-04T05:32:26;101118.25;;;1.63;100.00
42297;BME280;28985;47.456;19.016;2022-12-04T05:34:54;101112.16;;;1.61;100.00
42297;BME280;28985;47.456;19.016;2022-12-04T05:37:22;101113.91;;;1.60;100.00
42297;BME280;28985;47.456;19.016;2022-12-04T05:39:49;101110.28;;;1.63;100.00
42297;BME280;28985;47.456;19.016;2022-12-04T05:42:15;101106.78;;;1.63;100.00
42297;BME280;28985;47.456;19.016;2022-12-04T05:44:42;101114.06;;;1.57;100.00
42297;BME280;28985;47.456;19.016;2022-12-04T05:47:08;101107.13;;;1.53;100.00
42297;BME280;28985;47.456;19.016;2022-12-04T05:49:35;101108.91;;;1.53;100.00
42297;BME280;28985;47.456;19.016;2022-12-04T05:52:03;101109.84;;;1.52;100.00
42297;BME280;28985;47.456;19.016;2022-12-04T05:54:30;101100.91;;;1.54;100.00
42297;BME280;28985;47.456;19.016;2022-12-04T05:56:57;101105.34;;;1.54;100.00
42297;BME280;28985;47.456;19.016;2022-12-04T05:59:24;101101.81;;;1.53;100.00
42297;BME280;28985;47.456;19.016;2022-12-04T06:01:50;101109.78;;;1.53;100.00
42297;BME280;28985;47.456;19.016;2022-12-04T06:04:17;101113.22;;;1.55;100.00
42297;BME280;28985;47.456;19.016;2022-12-04T06:06:44;101111.00;;;1.44;100.00
42297;BME280;28985;47.456;19.016;2022-12-04T06:09:10;101112.25;;;1.36;100.00
42297;BME280;28985;47.456;19.016;2022-12-04T06:11:39;101105.31;;;1.31;100.00
42297;BME280;28985;47.456;19.016;2022-12-04T06:14:09;101109.88;;;1.28;100.00
42297;BME280;28985;47.456;19.016;2022-12-04T06:16:39;101110.63;;;1.31;100.00
42297;BME280;28985;47.456;19.016;2022-12-04T06:19:10;101120.50;;;1.28;100.00
42297;BME280;28985;47.456;19.016;2022-12-04T06:21:39;101127.47;;;1.30;100.00
42297;BME280;28985;47.456;19.016;2022-12-04T06:24:06;101126.44;;;1.34;100.00
42297;BME280;28985;47.456;19.016;2022-12-04T06:26:33;101122.97;;;1.32;100.00
42297;BME280;28985;47.456;19.016;2022-12-04T06:29:00;101124.72;;;1.33;100.00
42297;BME280;28985;47.456;19.016;2022-12-04T06:31:27;101127.28;;;1.35;100.00
42297;BME280;28985;47.456;19.016;2022-12-04T06:33:56;101124.03;;;1.28;100.00
42297;BME280;28985;47.456;19.016;2022-12-04T06:36:23;101130.25;;;1.27;100.00
42297;BME280;28985;47.456;19.016;2022-12-04T06:38:53;101125.75;;;1.29;100.00
42297;BME280;28985;47.456;19.016;2022-12-04T06:41:21;101122.97;;;1.32;100.00
42297;BME280;28985;47.456;19.016;2022-12-04T06:43:49;101125.56;;;1.34;100.00
42297;BME280;28985;47.456;19.016;2022-12-04T06:46:23;101113.03;;;1.38;100.00
42297;BME280;28985;47.456;19.016;2022-12-04T06:48:50;101114.84;;;1.37;100.00
42297;BME280;28985;47.456;19.016;2022-12-04T06:51:19;101111.06;;;1.43;100.00
42297;BME280;28985;47.456;19.016;2022-12-04T06:53:46;101114.34;;;1.50;100.00
42297;BME280;28985;47.456;19.016;2022-12-04T06:56:15;101116.75;;;1.56;100.00
42297;BME280;28985;47.456;19.016;2022-12-04T06:58:48;101112.16;;;1.61;100.00
42297;BME280;28985;47.456;19.016;2022-12-04T07:01:16;101107.53;;;1.66;100.00
42297;BME280;28985;47.456;19.016;2022-12-04T07:03:44;101107.31;;;1.71;100.00
42297;BME280;28985;47.456;19.016;2022-12-04T07:06:19;101113.38;;;1.74;100.00
42297;BME280;28985;47.456;19.016;2022-12-04T07:08:49;101113.16;;;1.79;100.00
42297;BME280;28985;47.456;19.016;2022-12-04T07:11:16;101113.84;;;1.84;100.00
42297;BME280;28985;47.456;19.016;2022-12-04T07:13:43;101109.22;;;1.90;100.00
42297;BME280;28985;47.456;19.016;2022-12-04T07:16:12;101118.66;;;1.97;100.00
42297;BME280;28985;47.456;19.016;2022-12-04T07:18:39;101122.81;;;2.04;100.00
42297;BME280;28985;47.456;19.016;2022-12-04T07:21:11;101123.44;;;2.09;100.00
42297;BME280;28985;47.456;19.016;2022-12-04T07:23:39;101127.72;;;2.13;100.00
42297;BME280;28985;47.456;19.016;2022-12-04T07:26:08;101124.84;;;2.18;100.00
42297;BME280;28985;47.456;19.016;2022-12-04T07:28:36;101118.44;;;2.24;100.00
42297;BME280;28985;47.456;19.016;2022-12-04T07:31:05;101111.94;;;2.31;100.00
42297;BME280;28985;47.456;19.016;2022-12-04T07:33:32;101109.88;;;2.38;100.00
42297;BME280;28985;47.456;19.016;2022-12-04T07:36:01;101113.88;;;2.48;100.00
42297;BME280;28985;47.456;19.016;2022-12-04T07:38:30;101113.50;;;2.56;100.00
42297;BME280;28985;47.456;19.016;2022-12-04T07:40:57;101121.97;;;2.66;100.00
42297;BME280;28985;47.456;19.016;2022-12-04T07:43:25;101116.22;;;2.75;100.00
42297;BME280;28985;47.456;19.016;2022-12-04T07:45:52;101115.72;;;2.86;100.00
42297;BME280;28985;47.456;19.016;2022-12-04T07:48:19;101116.09;;;2.98;100.00
42297;BME280;28985;47.456;19.016;2022-12-04T07:50:45;101113.75;;;3.11;100.00
42297;BME280;28985;47.456;19.016;2022-12-04T07:53:12;101114.84;;;3.26;100.00
42297;BME280;28985;47.456;19.016;2022-12-04T07:55:39;101115.19;;;3.37;100.00
42297;BME280;28985;47.456;19.016;2022-12-04T07:58:06;101115.63;;;3.47;100.00
42297;BME280;28985;47.456;19.016;2022-12-04T08:00:32;101107.16;;;3.58;100.00
42297;BME280;28985;47.456;19.016;2022-12-04T08:02:59;101101.28;;;3.69;100.00
42297;BME280;28985;47.456;19.016;2022-12-04T08:05:25;101102.56;;;3.79;100.00
42297;BME280;28985;47.456;19.016;2022-12-04T08:07:52;101098.66;;;3.86;100.00
42297;BME280;28985;47.456;19.016;2022-12-04T08:10:19;101113.63;;;3.89;100.00
42297;BME280;28985;47.456;19.016;2022-12-04T08:12:45;101111.81;;;3.89;100.00
42297;BME280;28985;47.456;19.016;2022-12-04T08:15:12;101119.28;;;4.00;100.00
42297;BME280;28985;47.456;19.016;2022-12-04T08:17:38;101109.03;;;4.10;100.00
42297;BME280;28985;47.456;19.016;2022-12-04T08:20:05;101109.34;;;4.22;100.00
42297;BME280;28985;47.456;19.016;2022-12-04T08:22:32;101104.41;;;4.32;100.00
42297;BME280;28985;47.456;19.016;2022-12-04T08:24:58;101093.09;;;4.44;100.00
42297;BME280;28985;47.456;19.016;2022-12-04T08:27:25;101093.66;;;4.51;100.00
42297;BME280;28985;47.456;19.016;2022-12-04T08:29:51;101088.06;;;4.55;100.00
42297;BME280;28985;47.456;19.016;2022-12-04T08:32:19;101097.31;;;4.66;100.00
42297;BME280;28985;47.456;19.016;2022-12-04T08:34:45;101106.78;;;4.72;100.00
42297;BME280;28985;47.456;19.016;2022-12-04T08:37:19;101101.59;;;4.86;100.00
42297;BME280;28985;47.456;19.016;2022-12-04T08:39:45;101097.63;;;4.93;100.00
42297;BME280;28985;47.456;19.016;2022-12-04T08:42:12;101104.81;;;5.09;99.52
42297;BME280;28985;47.456;19.016;2022-12-04T08:44:39;101097.84;;;5.22;99.27
42297;BME280;28985;47.456;19.016;2022-12-04T08:47:05;101113.25;;;5.33;98.07
42297;BME280;28985;47.456;19.016;2022-12-04T08:49:32;101112.06;;;5.39;96.65
42297;BME280;28985;47.456;19.016;2022-12-04T08:51:58;101107.75;;;5.53;96.22
42297;BME280;28985;47.456;19.016;2022-12-04T08:54:25;101109.38;;;5.71;96.80
42297;BME280;28985;47.456;19.016;2022-12-04T08:56:56;101111.19;;;5.87;95.97
42297;BME280;28985;47.456;19.016;2022-12-04T08:59:25;101103.41;;;5.98;94.49
42297;BME280;28985;47.456;19.016;2022-12-04T09:01:52;101106.13;;;6.13;93.42
42297;BME280;28985;47.456;19.016;2022-12-04T09:04:19;101107.84;;;6.30;92.79
42297;BME280;28985;47.456;19.016;2022-12-04T09:06:45;101115.00;;;6.44;91.01
42297;BME280;28985;47.456;19.016;2022-12-04T09:09:12;101097.44;;;6.54;89.95
42297;BME280;28985;47.456;19.016;2022-12-04T09:11:38;101105.31;;;6.57;88.05
42297;BME280;28985;47.456;19.016;2022-12-04T09:14:05;101103.00;;;6.66;88.00
42297;BME280;28985;47.456;19.016;2022-12-04T09:16:31;101098.16;;;6.72;86.75
42297;BME280;28985;47.456;19.016;2022-12-04T09:18:58;101089.53;;;6.82;87.46
42297;BME280;28985;47.456;19.016;2022-12-04T09:21:25;101087.34;;;6.89;85.53
42297;BME280;28985;47.456;19.016;2022-12-04T09:23:51;101090.47;;;7.10;85.89
42297;BME280;28985;47.456;19.016;2022-12-04T09:28:48;101082.47;;;7.52;84.79
42297;BME280;28985;47.456;19.016;2022-12-04T09:31:15;101082.88;;;7.73;82.70
42297;BME280;28985;47.456;19.016;2022-12-04T09:33:42;101079.94;;;7.91;80.34
42297;BME280;28985;47.456;19.016;2022-12-04T09:36:09;101078.91;;;8.19;80.21
42297;BME280;28985;47.456;19.016;2022-12-04T09:38:43;101071.66;;;8.48;78.92
42297;BME280;28985;47.456;19.016;2022-12-04T09:41:32;101063.63;;;8.73;77.08
42297;BME280;28985;47.456;19.016;2022-12-04T09:44:07;101058.88;;;9.03;75.40
42297;BME280;28985;47.456;19.016;2022-12-04T09:46:48;101052.16;;;9.22;74.38
42297;BME280;28985;47.456;19.016;2022-12-04T09:49:28;101046.50;;;9.38;72.01
42297;BME280;28985;47.456;19.016;2022-12-04T09:51:59;101053.72;;;9.62;71.75
42297;BME280;28985;47.456;19.016;2022-12-04T09:54:33;101046.78;;;9.95;69.37
42297;BME280;28985;47.456;19.016;2022-12-04T09:57:14;101043.06;;;10.20;68.17
42297;BME280;28985;47.456;19.016;2022-12-04T09:59:43;101049.84;;;10.38;66.46
42297;BME280;28985;47.456;19.016;2022-12-04T10:04:37;101034.84;;;10.69;64.80
42297;BME280;28985;47.456;19.016;2022-12-04T10:10:26;101025.56;;;10.62;63.15
42297;BME280;28985;47.456;19.016;2022-12-04T10:18:21;101014.31;;;11.35;62.79
42297;BME280;28985;47.456;19.016;2022-12-04T10:23:51;101008.59;;;11.82;60.54
42297;BME280;28985;47.456;19.016;2022-12-04T10:26:23;101000.66;;;12.02;57.91
42297;BME280;28985;47.456;19.016;2022-12-04T10:28:56;100997.06;;;11.92;58.25
42297;BME280;28985;47.456;19.016;2022-12-04T10:31:25;101000.38;;;12.17;58.44
42297;BME280;28985;47.456;19.016;2022-12-04T10:33:57;100989.28;;;12.41;56.93
42297;BME280;28985;47.456;19.016;2022-12-04T10:36:32;100995.59;;;12.61;55.14
42297;BME280;28985;47.456;19.016;2022-12-04T10:39:05;100987.84;;;12.78;55.05
42297;BME280;28985;47.456;19.016;2022-12-04T10:41:57;100963.88;;;12.95;54.08
42297;BME280;28985;47.456;19.016;2022-12-04T10:44:24;100963.88;;;13.05;52.86
42297;BME280;28985;47.456;19.016;2022-12-04T10:47:01;100967.34;;;13.16;51.47
42297;BME280;28985;47.456;19.016;2022-12-04T10:49:30;100970.16;;;13.15;53.09
42297;BME280;28985;47.456;19.016;2022-12-04T10:51:59;100965.06;;;13.41;52.31
42297;BME280;28985;47.456;19.016;2022-12-04T10:57:07;100957.13;;;13.69;50.73
42297;BME280;28985;47.456;19.016;2022-12-04T10:59:38;100952.88;;;13.67;49.62
42297;BME280;28985;47.456;19.016;2022-12-04T11:02:26;100948.44;;;13.56;49.49
42297;BME280;28985;47.456;19.016;2022-12-04T11:05:03;100947.16;;;13.70;50.29
42297;BME280;28985;47.456;19.016;2022-12-04T11:07:33;100944.97;;;14.03;49.42
42297;BME280;28985;47.456;19.016;2022-12-04T11:10:53;100938.78;;;14.21;48.50
42297;BME280;28985;47.456;19.016;2022-12-04T11:13:03;100928.06;;;14.29;48.06
42297;BME280;28985;47.456;19.016;2022-12-04T11:15:34;100925.84;;;14.53;47.51
42297;BME280;28985;47.456;19.016;2022-12-04T11:18:31;100914.41;;;14.59;46.68
42297;BME280;28985;47.456;19.016;2022-12-04T11:23:40;100914.84;;;14.82;46.72
42297;BME280;28985;47.456;19.016;2022-12-04T11:26:07;100916.59;;;15.01;46.47
42297;BME280;28985;47.456;19.016;2022-12-04T11:28:36;100912.66;;;15.14;45.79
42297;BME280;28985;47.456;19.016;2022-12-04T11:31:09;100914.72;;;15.20;45.68
42297;BME280;28985;47.456;19.016;2022-12-04T11:34:02;100918.59;;;15.17;45.13
42297;BME280;28985;47.456;19.016;2022-12-04T11:36:33;100909.53;;;15.09;45.27
42297;BME280;28985;47.456;19.016;2022-12-04T11:39:13;100916.66;;;15.10;45.04
42297;BME280;28985;47.456;19.016;2022-12-04T11:41:41;100901.72;;;15.06;45.86
42297;BME280;28985;47.456;19.016;2022-12-04T11:44:24;100904.50;;;15.14;45.35
42297;BME280;28985;47.456;19.016;2022-12-04T11:46:53;100896.81;;;15.27;45.82
42297;BME280;28985;47.456;19.016;2022-12-04T11:49:22;100884.50;;;15.33;44.88
42297;BME280;28985;47.456;19.016;2022-12-04T11:54:33;100885.59;;;15.40;44.40
42297;BME280;28985;47.456;19.016;2022-12-04T11:59:41;100881.25;;;15.11;45.27
42297;BME280;28985;47.456;19.016;2022-12-04T12:02:34;100880.72;;;15.08;45.50
42297;BME280;28985;47.456;19.016;2022-12-04T12:07:56;100875.09;;;14.73;45.62
42297;BME280;28985;47.456;19.016;2022-12-04T12:10:46;100876.69;;;14.75;46.05
42297;BME280;28985;47.456;19.016;2022-12-04T12:24:16;100895.47;;;14.21;46.40
42297;BME280;28985;47.456;19.016;2022-12-04T12:29:41;100898.00;;;13.85;47.90
42297;BME280;28985;47.456;19.016;2022-12-04T12:32:26;100899.88;;;13.74;47.86
42297;BME280;28985;47.456;19.016;2022-12-04T12:34:57;100906.88;;;13.67;48.42
42297;BME280;28985;47.456;19.016;2022-12-04T12:37:55;100900.59;;;13.37;48.92
42297;BME280;28985;47.456;19.016;2022-12-04T12:41:43;100907.28;;;13.33;49.22
42297;BME280;28985;47.456;19.016;2022-12-04T12:43:38;100898.19;;;13.24;49.42
42297;BME280;28985;47.456;19.016;2022-12-04T12:46:11;100892.22;;;13.00;50.74
42297;BME280;28985;47.456;19.016;2022-12-04T12:49:02;100887.50;;;13.02;50.75
42297;BME280;28985;47.456;19.016;2022-12-04T12:51:42;100883.97;;;13.12;51.10
42297;BME280;28985;47.456;19.016;2022-12-04T12:56:50;100894.91;;;13.20;49.92
42297;BME280;28985;47.456;19.016;2022-12-04T12:59:23;100898.59;;;13.39;49.89
42297;BME280;28985;47.456;19.016;2022-12-04T13:01:54;100890.78;;;13.16;49.14
42297;BME280;28985;47.456;19.016;2022-12-04T13:04:42;100883.47;;;12.77;49.27
42297;BME280;28985;47.456;19.016;2022-12-04T13:09:55;100894.91;;;12.40;51.15
42297;BME280;28985;47.456;19.016;2022-12-04T13:12:25;100884.97;;;12.09;51.99
42297;BME280;28985;47.456;19.016;2022-12-04T13:14:52;100888.25;;;11.91;53.01
42297;BME280;28985;47.456;19.016;2022-12-04T13:17:28;100890.66;;;11.63;53.31
42297;BME280;28985;47.456;19.016;2022-12-04T13:19:58;100893.81;;;11.47;53.49
42297;BME280;28985;47.456;19.016;2022-12-04T13:28:11;100919.94;;;10.70;56.84
42297;BME280;28985;47.456;19.016;2022-12-04T13:30:51;100918.22;;;10.34;57.12
42297;BME280;28985;47.456;19.016;2022-12-04T13:41:21;100924.25;;;9.79;59.69
42297;BME280;28985;47.456;19.016;2022-12-04T13:43:50;100922.41;;;9.69;60.35
42297;BME280;28985;47.456;19.016;2022-12-04T13:48:47;100911.22;;;9.50;61.59
42297;BME280;28985;47.456;19.016;2022-12-04T13:53:42;100914.63;;;9.17;63.09
42297;BME280;28985;47.456;19.016;2022-12-04T13:56:24;100909.50;;;9.13;63.49
42297;BME280;28985;47.456;19.016;2022-12-04T13:59:00;100919.59;;;9.10;63.48
42297;BME280;28985;47.456;19.016;2022-12-04T14:01:33;100925.16;;;8.95;64.43
42297;BME280;28985;47.456;19.016;2022-12-04T14:04:02;100924.97;;;8.85;64.30
42297;BME280;28985;47.456;19.016;2022-12-04T14:06:36;100934.22;;;8.81;65.08
42297;BME280;28985;47.456;19.016;2022-12-04T14:09:07;100935.00;;;8.70;65.34
42297;BME280;28985;47.456;19.016;2022-12-04T14:11:45;100937.28;;;8.64;65.42
42297;BME280;28985;47.456;19.016;2022-12-04T14:14:43;100929.91;;;8.54;65.65
42297;BME280;28985;47.456;19.016;2022-12-04T14:17:19;100944.56;;;8.49;66.49
42297;BME280;28985;47.456;19.016;2022-12-04T14:19:55;100934.28;;;8.42;66.56
42297;BME280;28985;47.456;19.016;2022-12-04T14:27:45;100936.44;;;8.24;67.23
42297;BME280;28985;47.456;19.016;2022-12-04T14:32:48;100933.97;;;8.21;67.00
42297;BME280;28985;47.456;19.016;2022-12-04T14:35:18;100928.63;;;8.21;67.84
42297;BME280;28985;47.456;19.016;2022-12-04T14:38:03;100924.22;;;8.20;68.27
42297;BME280;28985;47.456;19.016;2022-12-04T14:40:38;100930.88;;;8.14;68.56
42297;BME280;28985;47.456;19.016;2022-12-04T14:43:20;100933.00;;;8.09;69.20
42297;BME280;28985;47.456;19.016;2022-12-04T14:46:22;100927.00;;;8.05;69.89